createdAt,value
2022-12-13T00:01:23.971Z,7.73
2022-12-13T00:03:55.747Z,7.87
2022-12-13T00:06:22.861Z,8.30
2022-12-13T00:08:49.931Z,8.30
2022-12-13T00:11:17.304Z,8.43
2022-12-13T00:13:44.515Z,8.50
2022-12-13T00:16:14.022Z,7.87
2022-12-13T00:18:41.251Z,7.97
2022-12-13T00:21:14.488Z,8.40
2022-12-13T00:23:41.990Z,7.63
2022-12-13T00:26:29.785Z,6.83
2022-12-13T00:29:02.781Z,8.27
2022-12-13T00:34:19.310Z,8.60
2022-12-13T00:36:46.669Z,9.57
2022-12-13T00:39:16.422Z,8.93
2022-12-13T00:41:44.116Z,8.13
2022-12-13T00:44:14.612Z,8.17
2022-12-13T00:46:42.311Z,8.47
2022-12-13T00:49:10.878Z,8.57
2022-12-13T00:51:38.501Z,8.20
2022-12-13T00:54:05.875Z,8.60
2022-12-13T00:56:33.905Z,8.60
2022-12-13T00:59:01.377Z,8.30
2022-12-13T01:01:31.449Z,7.93
2022-12-13T01:04:00.990Z,8.27
2022-12-13T01:06:41.453Z,7.70
2022-12-13T01:09:15.527Z,8.93
2022-12-13T01:11:42.299Z,8.60
2022-12-13T01:14:09.314Z,9.03
2022-12-13T01:16:36.257Z,7.83
2022-12-13T01:19:03.546Z,7.40
2022-12-13T01:21:30.484Z,7.23
2022-12-13T01:24:02.278Z,7.77
2022-12-13T01:26:29.293Z,7.53
2022-12-13T01:28:56.368Z,8.33
2022-12-13T01:31:23.256Z,8.57
2022-12-13T01:33:50.387Z,8.67
2022-12-13T01:36:19.537Z,8.10
2022-12-13T01:38:58.539Z,7.73
2022-12-13T01:41:27.708Z,7.50
2022-12-13T01:44:03.076Z,7.53
2022-12-13T01:46:35.243Z,6.23
2022-12-13T01:49:20.185Z,7.40
2022-12-13T01:51:47.587Z,7.40
2022-12-13T01:54:21.194Z,7.33
2022-12-13T01:56:53.497Z,7.30
2022-12-13T01:59:28.164Z,6.93
2022-12-13T02:02:00.851Z,7.30
2022-12-13T02:04:34.669Z,7.83
2022-12-13T02:07:23.063Z,7.53
2022-12-13T02:09:57.162Z,7.40
2022-12-13T02:12:29.604Z,6.60
2022-12-13T02:15:01.197Z,6.90
2022-12-13T02:17:45.959Z,6.20
2022-12-13T02:20:37.843Z,6.60
2022-12-13T02:23:29.714Z,6.80
2022-12-13T02:26:26.011Z,6.70
2022-12-13T02:28:59.754Z,6.60
2022-12-13T02:31:29.414Z,6.37
2022-12-13T02:34:07.897Z,6.27
2022-12-13T02:36:57.505Z,5.50
2022-12-13T02:39:59.708Z,5.20
2022-12-13T02:42:35.772Z,5.50
2022-12-13T02:45:20.519Z,5.30
2022-12-13T02:47:52.641Z,6.23
2022-12-13T02:50:21.932Z,5.30
2022-12-13T02:52:50.002Z,6.40
2022-12-13T02:55:17.537Z,5.57
2022-12-13T02:57:45.935Z,6.03
2022-12-13T03:00:20.784Z,6.23
2022-12-13T03:02:57.204Z,6.27
2022-12-13T03:05:57.411Z,6.60
2022-12-13T03:08:30.848Z,6.80
2022-12-13T03:11:10.920Z,7.47
2022-12-13T03:13:55.237Z,7.47
2022-12-13T03:16:36.605Z,8.10
2022-12-13T03:19:08.242Z,8.23
2022-12-13T03:21:47.373Z,10.20
2022-12-13T03:24:20.588Z,10.00
2022-12-13T03:26:49.581Z,9.60
2022-12-13T03:29:23.586Z,10.20
2022-12-13T03:31:52.889Z,10.40
2022-12-13T03:34:22.387Z,9.67
2022-12-13T03:36:50.526Z,9.47
2022-12-13T03:39:17.779Z,8.70
2022-12-13T03:41:44.522Z,9.00
2022-12-13T03:44:11.655Z,9.77
2022-12-13T03:46:38.572Z,9.47
2022-12-13T03:49:05.863Z,8.97
2022-12-13T03:51:32.668Z,9.80
2022-12-13T03:53:59.747Z,9.80
2022-12-13T03:56:26.544Z,9.40
2022-12-13T03:58:53.753Z,9.60
2022-12-13T04:01:22.124Z,10.13
2022-12-13T04:03:49.261Z,9.97
2022-12-13T04:06:22.520Z,8.57
2022-12-13T04:08:52.291Z,8.50
2022-12-13T04:11:42.994Z,9.07
2022-12-13T04:14:22.441Z,9.17
2022-12-13T04:16:52.209Z,9.73
2022-12-13T04:19:23.761Z,9.23
2022-12-13T04:21:54.158Z,9.47
2022-12-13T04:24:30.884Z,10.40
2022-12-13T04:27:00.812Z,9.00
2022-12-13T04:29:33.962Z,10.00
2022-12-13T04:32:03.039Z,8.50
2022-12-13T04:34:36.512Z,7.97
2022-12-13T04:37:04.349Z,10.13
2022-12-13T04:39:33.940Z,7.67
2022-12-13T04:42:01.583Z,8.60
2022-12-13T04:44:36.503Z,8.87
2022-12-13T04:47:04.476Z,9.17
2022-12-13T04:49:32.066Z,8.33
2022-12-13T04:52:01.630Z,8.40
2022-12-13T04:54:35.671Z,8.97
2022-12-13T04:57:06.123Z,8.60
2022-12-13T04:59:33.277Z,8.23
2022-12-13T05:02:00.030Z,8.00
2022-12-13T05:04:32.304Z,8.93
2022-12-13T05:07:00.689Z,7.93
2022-12-13T05:09:27.777Z,8.07
2022-12-13T05:12:01.458Z,7.63
2022-12-13T05:14:33.037Z,8.13
2022-12-13T05:17:01.197Z,7.73
2022-12-13T05:19:30.624Z,8.70
2022-12-13T05:22:01.235Z,8.37
2022-12-13T05:24:31.651Z,7.63
2022-12-13T05:26:59.472Z,7.77
2022-12-13T05:29:28.003Z,8.30
2022-12-13T05:31:54.968Z,8.17
2022-12-13T05:34:22.006Z,7.77
2022-12-13T05:36:48.780Z,9.17
2022-12-13T05:39:29.352Z,8.13
2022-12-13T05:42:01.982Z,8.30
2022-12-13T05:44:31.313Z,8.10
2022-12-13T05:46:58.439Z,9.80
2022-12-13T05:49:29.237Z,7.93
2022-12-13T05:51:56.719Z,7.60
2022-12-13T05:54:23.754Z,8.30
2022-12-13T05:56:50.484Z,8.63
2022-12-13T05:59:17.603Z,8.53
2022-12-13T06:01:44.358Z,8.00
2022-12-13T06:04:13.183Z,8.70
2022-12-13T06:06:50.989Z,9.00
2022-12-13T06:09:20.032Z,8.30
2022-12-13T06:11:47.172Z,9.57
2022-12-13T06:14:22.426Z,9.47
2022-12-13T06:16:52.376Z,9.07
2022-12-13T06:19:23.631Z,8.30
2022-12-13T06:21:52.763Z,8.53
2022-12-13T06:24:21.684Z,9.00
2022-12-13T06:26:50.656Z,8.67
2022-12-13T06:29:23.800Z,8.30
2022-12-13T06:31:53.982Z,9.00
2022-12-13T06:34:21.011Z,8.13
2022-12-13T06:36:47.891Z,8.97
2022-12-13T06:39:15.839Z,9.93
2022-12-13T06:41:42.870Z,9.27
2022-12-13T06:44:09.973Z,9.23
2022-12-13T06:46:37.247Z,9.20
2022-12-13T06:49:08.143Z,10.40
2022-12-13T06:51:35.139Z,10.13
2022-12-13T06:54:02.670Z,8.83
2022-12-13T06:56:30.244Z,10.10
2022-12-13T06:59:01.796Z,10.97
2022-12-13T07:01:37.346Z,11.37
2022-12-13T07:04:29.931Z,10.47
2022-12-13T07:06:53.657Z,10.63
2022-12-13T07:09:20.772Z,10.37
2022-12-13T07:11:51.960Z,10.37
2022-12-13T07:14:20.103Z,10.70
2022-12-13T07:16:46.859Z,9.83
2022-12-13T07:19:23.958Z,9.23
2022-12-13T07:21:52.441Z,9.50
2022-12-13T07:24:19.940Z,17.77
2022-12-13T07:26:46.902Z,10.97
2022-12-13T07:29:13.957Z,12.07
2022-12-13T07:31:49.618Z,10.73
2022-12-13T07:34:16.857Z,22.83
2022-12-13T07:36:43.627Z,13.03
2022-12-13T07:39:10.989Z,11.80
2022-12-13T07:41:37.829Z,11.70
2022-12-13T07:44:06.410Z,13.77
2022-12-13T07:46:34.259Z,11.53
2022-12-13T07:49:02.924Z,10.80
2022-12-13T07:51:29.911Z,21.70
2022-12-13T07:53:57.745Z,19.30
2022-12-13T07:56:25.084Z,14.63
2022-12-13T07:58:52.035Z,15.33
2022-12-13T08:01:18.812Z,11.83
2022-12-13T08:03:48.095Z,11.13
2022-12-13T08:06:15.132Z,11.03
2022-12-13T08:08:42.774Z,14.47
2022-12-13T08:11:16.608Z,11.17
2022-12-13T08:13:43.747Z,10.87
2022-12-13T08:16:26.272Z,10.87
2022-12-13T08:19:01.904Z,10.23
2022-12-13T08:24:27.840Z,10.90
2022-12-13T08:27:03.275Z,10.13
2022-12-13T08:29:33.489Z,11.80
2022-12-13T08:32:09.386Z,10.17
2022-12-13T08:34:38.177Z,14.13
2022-12-13T08:37:05.728Z,25.60
2022-12-13T08:39:35.691Z,12.93
2022-12-13T08:42:17.123Z,35.90
2022-12-13T08:44:46.765Z,12.50
2022-12-13T08:47:22.982Z,10.60
2022-12-13T08:50:01.819Z,10.00
2022-12-13T08:52:31.415Z,10.80
2022-12-13T08:54:58.431Z,10.57
2022-12-13T08:57:25.220Z,9.93
2022-12-13T08:59:54.091Z,9.40
2022-12-13T09:02:20.926Z,9.37
2022-12-13T09:04:48.216Z,9.30
2022-12-13T09:07:15.247Z,9.17
2022-12-13T09:09:42.341Z,9.30
2022-12-13T09:12:10.422Z,9.30
2022-12-13T09:14:45.641Z,9.10
2022-12-13T09:17:24.171Z,9.43
2022-12-13T09:19:57.962Z,9.20
2022-12-13T09:22:33.448Z,9.43
2022-12-13T09:25:05.351Z,10.47
2022-12-13T09:27:39.995Z,11.23
2022-12-13T09:30:12.992Z,10.70
2022-12-13T09:32:49.561Z,10.77
2022-12-13T09:35:17.197Z,9.03
2022-12-13T09:37:46.057Z,10.20
2022-12-13T09:40:25.924Z,11.77
2022-12-13T09:43:12.603Z,10.57
2022-12-13T09:45:45.472Z,8.10
2022-12-13T09:48:22.309Z,11.83
2022-12-13T09:50:58.524Z,9.13
2022-12-13T09:53:40.415Z,12.97
2022-12-13T09:56:12.922Z,10.37
2022-12-13T09:58:39.787Z,12.53
2022-12-13T10:01:06.887Z,7.00
2022-12-13T10:03:34.699Z,8.37
2022-12-13T10:06:22.621Z,9.13
2022-12-13T10:08:57.602Z,10.07
2022-12-13T10:11:32.663Z,7.63
2022-12-13T10:14:27.671Z,12.97
2022-12-13T10:16:58.127Z,10.67
2022-12-13T10:19:35.474Z,7.53
2022-12-13T10:22:04.707Z,8.93
2022-12-13T10:24:50.661Z,8.20
2022-12-13T10:27:33.780Z,7.20
2022-12-13T10:30:07.558Z,8.00
2022-12-13T10:32:55.012Z,7.33
2022-12-13T10:35:27.789Z,6.87
2022-12-13T10:37:57.733Z,6.50
2022-12-13T10:40:34.795Z,6.37
2022-12-13T10:43:27.525Z,6.80
2022-12-13T10:46:00.655Z,6.87
2022-12-13T10:48:46.621Z,6.67
2022-12-13T10:51:17.748Z,14.13
2022-12-13T10:53:49.640Z,8.27
2022-12-13T10:56:22.428Z,8.93
2022-12-13T10:59:20.953Z,9.23
2022-12-13T11:01:47.806Z,10.27
2022-12-13T11:04:28.403Z,7.93
2022-12-13T11:06:57.498Z,7.53
2022-12-13T11:09:29.221Z,6.23
2022-12-13T11:12:14.547Z,7.23
2022-12-13T11:15:09.742Z,7.00
2022-12-13T11:17:45.613Z,7.73
2022-12-13T11:20:19.531Z,9.00
2022-12-13T11:22:46.361Z,8.33
2022-12-13T11:25:23.005Z,7.93
2022-12-13T11:28:25.898Z,7.97
2022-12-13T11:31:03.191Z,7.37
2022-12-13T11:33:47.711Z,7.53
2022-12-13T11:36:21.578Z,6.63
2022-12-13T11:39:14.157Z,6.10
2022-12-13T11:42:04.460Z,6.40
2022-12-13T11:44:47.798Z,6.40
2022-12-13T11:47:25.237Z,6.07
2022-12-13T11:49:53.275Z,6.77
2022-12-13T11:52:27.117Z,5.47
2022-12-13T11:55:05.570Z,6.10
2022-12-13T11:57:44.866Z,6.87
2022-12-13T12:00:33.653Z,6.60
2022-12-13T12:03:22.898Z,7.63
2022-12-13T12:06:09.836Z,7.97
2022-12-13T12:08:55.732Z,6.47
2022-12-13T12:11:34.416Z,7.37
2022-12-13T12:14:24.151Z,6.07
2022-12-13T12:16:54.507Z,6.63
2022-12-13T12:19:35.823Z,5.57
2022-12-13T12:22:24.921Z,6.30
2022-12-13T12:25:19.839Z,6.50
2022-12-13T12:27:58.950Z,6.47
2022-12-13T12:30:30.971Z,7.13
2022-12-13T12:33:10.653Z,8.07
2022-12-13T12:36:11.741Z,8.90
2022-12-13T12:38:58.832Z,8.93
2022-12-13T12:41:50.551Z,7.73
2022-12-13T12:44:30.968Z,6.50
2022-12-13T12:47:32.553Z,5.80
2022-12-13T12:50:03.231Z,6.43
2022-12-13T12:52:51.978Z,6.33
2022-12-13T12:55:33.727Z,7.30
2022-12-13T12:58:25.354Z,7.33
2022-12-13T13:01:04.836Z,7.17
2022-12-13T13:03:36.807Z,6.50
2022-12-13T13:06:25.220Z,8.20
2022-12-13T13:09:02.526Z,9.93
2022-12-13T13:11:33.842Z,7.30
2022-12-13T13:14:31.898Z,9.47
2022-12-13T13:17:01.379Z,7.63
2022-12-13T13:19:31.286Z,8.87
2022-12-13T13:22:01.863Z,9.53
2022-12-13T13:24:32.077Z,10.90
2022-12-13T13:27:08.911Z,9.93
2022-12-13T13:29:43.691Z,10.37
2022-12-13T13:32:11.139Z,8.93
2022-12-13T13:34:45.551Z,9.90
2022-12-13T13:37:23.044Z,21.43
2022-12-13T13:40:03.598Z,13.10
2022-12-13T13:42:31.808Z,11.53
2022-12-13T13:45:18.495Z,11.40
2022-12-13T13:47:52.697Z,26.40
2022-12-13T13:50:48.712Z,6.53
2022-12-13T13:53:57.312Z,7.67
2022-12-13T13:56:27.584Z,7.03
2022-12-13T13:59:31.303Z,10.70
2022-12-13T14:02:33.052Z,9.97
2022-12-13T14:05:03.183Z,9.57
2022-12-13T14:07:51.479Z,17.53
2022-12-13T14:10:37.200Z,8.73
2022-12-13T14:13:32.272Z,7.77
2022-12-13T14:16:29.238Z,9.77
2022-12-13T14:19:05.763Z,11.50
2022-12-13T14:21:50.893Z,9.27
2022-12-13T14:24:23.919Z,11.60
2022-12-13T14:26:51.934Z,13.80
2022-12-13T14:29:27.533Z,12.33
2022-12-13T14:31:55.387Z,10.93
2022-12-13T14:34:28.440Z,13.00
2022-12-13T14:36:56.901Z,11.90
2022-12-13T14:39:25.850Z,7.90
2022-12-13T14:41:56.715Z,7.83
2022-12-13T14:44:37.415Z,6.87
2022-12-13T14:47:06.953Z,10.40
2022-12-13T14:49:38.241Z,9.83
2022-12-13T14:52:37.806Z,10.43
2022-12-13T14:55:06.238Z,19.70
2022-12-13T14:57:34.918Z,17.10
2022-12-13T15:00:22.476Z,20.37
2022-12-13T15:02:55.426Z,18.27
2022-12-13T15:05:44.309Z,8.83
2022-12-13T15:08:18.934Z,10.33
2022-12-13T15:10:49.484Z,9.43
2022-12-13T15:13:37.916Z,17.53
2022-12-13T15:16:14.227Z,9.53
2022-12-13T15:18:50.805Z,10.83
2022-12-13T15:21:25.515Z,9.90
2022-12-13T15:23:59.176Z,9.97
2022-12-13T15:26:34.674Z,10.20
2022-12-13T15:29:10.128Z,9.17
2022-12-13T15:31:40.381Z,8.27
2022-12-13T15:34:30.633Z,8.03
2022-12-13T15:37:01.983Z,9.30
2022-12-13T15:39:31.121Z,8.80
2022-12-13T15:41:59.262Z,8.10
2022-12-13T15:44:45.004Z,9.10
2022-12-13T15:47:27.723Z,8.67
2022-12-13T15:50:05.170Z,9.30
2022-12-13T15:52:40.621Z,9.07
2022-12-13T15:55:07.728Z,8.00
2022-12-13T15:57:49.177Z,9.17
2022-12-13T16:00:16.915Z,9.63
2022-12-13T16:03:11.579Z,9.40
2022-12-13T16:05:48.710Z,9.67
2022-12-13T16:08:24.533Z,9.17
2022-12-13T16:10:53.011Z,9.30
2022-12-13T16:13:29.061Z,10.30
2022-12-13T16:16:31.840Z,9.50
2022-12-13T16:19:00.686Z,9.60
2022-12-13T16:21:28.372Z,10.07
2022-12-13T16:23:55.503Z,9.50
2022-12-13T16:26:26.191Z,9.90
2022-12-13T16:28:55.676Z,9.37
2022-12-13T16:31:25.423Z,9.27
2022-12-13T16:33:52.667Z,9.00
2022-12-13T16:36:19.722Z,8.53
2022-12-13T16:38:46.738Z,9.47
2022-12-13T16:41:14.860Z,9.77
2022-12-13T16:43:56.995Z,10.20
2022-12-13T16:47:16.167Z,9.57
2022-12-13T16:49:26.992Z,10.60
2022-12-13T16:51:54.878Z,11.30
2022-12-13T16:54:23.850Z,13.73
2022-12-13T16:56:51.727Z,13.40
2022-12-13T16:59:22.532Z,14.47
2022-12-13T17:01:51.045Z,14.90
2022-12-13T17:04:23.664Z,14.27
2022-12-13T17:06:54.739Z,11.77
2022-12-13T17:09:23.964Z,13.27
2022-12-13T17:11:51.170Z,13.90
2022-12-13T17:14:18.217Z,16.63
2022-12-13T17:16:44.963Z,17.87
2022-12-13T17:19:14.564Z,18.87
2022-12-13T17:21:41.539Z,13.83
2022-12-13T17:24:08.720Z,13.00
2022-12-13T17:26:35.601Z,16.80
2022-12-13T17:29:03.063Z,9.93
2022-12-13T17:31:35.277Z,9.90
2022-12-13T17:34:04.359Z,9.80
2022-12-13T17:36:31.798Z,12.03
2022-12-13T17:38:59.037Z,12.37
2022-12-13T17:41:26.308Z,12.23
2022-12-13T17:43:53.432Z,22.60
2022-12-13T17:46:20.234Z,13.83
2022-12-13T17:48:49.001Z,22.47
2022-12-13T17:51:15.916Z,12.67
2022-12-13T17:53:44.253Z,37.87
2022-12-13T17:56:15.068Z,12.50
2022-12-13T17:58:42.765Z,24.63
2022-12-13T18:01:27.806Z,9.33
2022-12-13T18:03:57.191Z,18.53
2022-12-13T18:06:25.616Z,18.40
2022-12-13T18:08:53.061Z,9.60
2022-12-13T18:11:35.858Z,29.30
2022-12-13T18:14:05.362Z,22.47
2022-12-13T18:16:38.355Z,15.90
2022-12-13T18:19:08.258Z,17.10
2022-12-13T18:21:36.899Z,15.43
2022-12-13T18:24:07.933Z,17.50
2022-12-13T18:26:34.953Z,19.33
2022-12-13T18:29:03.663Z,15.30
2022-12-13T18:31:30.607Z,16.17
2022-12-13T18:33:57.842Z,14.27
2022-12-13T18:36:25.586Z,18.63
2022-12-13T18:38:53.141Z,17.70
2022-12-13T18:41:27.829Z,11.63
2022-12-13T18:43:59.629Z,9.37
2022-12-13T18:46:31.154Z,10.43
2022-12-13T18:48:58.577Z,11.93
2022-12-13T18:51:26.236Z,13.50
2022-12-13T18:53:54.831Z,16.53
2022-12-13T18:56:22.502Z,16.27
2022-12-13T18:58:50.671Z,15.57
2022-12-13T19:01:18.639Z,22.80
2022-12-13T19:03:47.704Z,13.67
2022-12-13T19:06:20.522Z,9.47
2022-12-13T19:08:52.466Z,10.03
2022-12-13T19:11:19.733Z,9.93
2022-12-13T19:13:47.898Z,9.03
2022-12-13T19:16:18.240Z,8.50
2022-12-13T19:18:45.443Z,7.90
2022-12-13T19:21:15.069Z,8.47
2022-12-13T19:23:42.858Z,7.17
2022-12-13T19:26:13.099Z,7.07
2022-12-13T19:28:41.546Z,7.37
2022-12-13T19:31:13.557Z,7.60
2022-12-13T19:33:41.836Z,8.27
2022-12-13T19:36:09.875Z,8.03
2022-12-13T19:38:38.363Z,7.30
2022-12-13T19:41:09.953Z,7.97
2022-12-13T19:43:37.617Z,8.13
2022-12-13T19:46:05.291Z,8.57
2022-12-13T19:48:32.567Z,7.93
2022-12-13T19:51:00.385Z,7.67
2022-12-13T19:53:29.778Z,8.67
2022-12-13T19:55:57.178Z,8.63
2022-12-13T19:58:25.267Z,9.20
2022-12-13T20:00:52.386Z,8.50
2022-12-13T20:03:19.875Z,9.37
2022-12-13T20:05:57.066Z,9.53
2022-12-13T20:08:24.466Z,9.73
2022-12-13T20:11:01.283Z,8.60
2022-12-13T20:13:29.219Z,9.67
2022-12-13T20:15:56.353Z,9.27
2022-12-13T20:18:24.202Z,10.67
2022-12-13T20:21:11.136Z,11.47
2022-12-13T20:23:38.870Z,12.93
2022-12-13T20:26:10.770Z,12.43
2022-12-13T20:28:38.430Z,17.90
2022-12-13T20:31:10.122Z,17.50
2022-12-13T20:33:38.519Z,14.20
2022-12-13T20:36:24.177Z,15.63
2022-12-13T20:38:55.714Z,13.43
2022-12-13T20:41:24.857Z,15.60
2022-12-13T20:43:53.046Z,12.83
2022-12-13T20:46:20.431Z,20.00
2022-12-13T20:48:48.538Z,22.43
2022-12-13T20:51:18.715Z,16.33
2022-12-13T20:53:47.319Z,22.00
2022-12-13T20:56:16.695Z,14.40
2022-12-13T20:58:44.653Z,15.83
2022-12-13T21:01:20.416Z,15.70
2022-12-13T21:03:47.532Z,15.93
2022-12-13T21:06:14.393Z,16.80
2022-12-13T21:08:59.962Z,16.07
2022-12-13T21:11:36.161Z,99.60
2022-12-13T21:14:21.441Z,48.17
2022-12-13T21:17:04.796Z,26.97
2022-12-13T21:19:39.017Z,34.10
2022-12-13T21:22:06.639Z,25.83
2022-12-13T21:24:33.736Z,23.53
2022-12-13T21:27:00.513Z,20.00
2022-12-13T21:29:27.577Z,20.20
2022-12-13T21:31:54.895Z,19.70
2022-12-13T21:34:22.624Z,18.63
2022-12-13T21:36:52.196Z,19.33
2022-12-13T21:39:28.015Z,16.93
2022-12-13T21:41:55.776Z,15.33
2022-12-13T21:44:23.330Z,15.10
2022-12-13T21:49:37.477Z,15.17
2022-12-13T21:52:04.511Z,19.93
2022-12-13T21:54:31.515Z,16.23
2022-12-13T21:57:17.022Z,21.70
2022-12-13T21:59:44.034Z,20.53
2022-12-13T22:02:17.620Z,18.07
2022-12-13T22:04:56.469Z,17.07
2022-12-13T22:07:24.649Z,18.77
2022-12-13T22:09:53.284Z,17.37
2022-12-13T22:12:41.067Z,16.87
2022-12-13T22:15:13.852Z,18.43
2022-12-13T22:17:41.635Z,19.80
2022-12-13T22:20:15.388Z,20.17
2022-12-13T22:22:44.099Z,17.83
2022-12-13T22:25:12.130Z,16.73
2022-12-13T22:27:39.555Z,16.50
2022-12-13T22:30:07.352Z,19.17
2022-12-13T22:32:34.268Z,18.97
2022-12-13T22:35:01.393Z,18.73
2022-12-13T22:37:28.141Z,17.40
2022-12-13T22:39:55.178Z,18.90
2022-12-13T22:42:22.042Z,18.20
2022-12-13T22:44:49.219Z,20.03
2022-12-13T22:47:15.948Z,19.27
2022-12-13T22:49:42.938Z,18.47
2022-12-13T22:52:09.864Z,17.60
2022-12-13T22:54:36.930Z,18.07
2022-12-13T22:57:03.785Z,17.83
2022-12-13T22:59:30.998Z,18.63
2022-12-13T23:02:02.517Z,19.70
2022-12-13T23:04:32.585Z,19.07
2022-12-13T23:06:59.466Z,19.23
2022-12-13T23:09:26.916Z,20.53
2022-12-13T23:12:12.063Z,19.40
2022-12-13T23:14:39.275Z,19.03
2022-12-13T23:17:06.417Z,19.87
2022-12-13T23:19:50.981Z,18.00
2022-12-13T23:22:24.820Z,19.10
2022-12-13T23:24:52.866Z,19.60
2022-12-13T23:27:21.301Z,19.03
2022-12-13T23:29:48.934Z,18.63
2022-12-13T23:32:15.974Z,18.67
2022-12-13T23:34:42.965Z,19.43
2022-12-13T23:37:09.661Z,18.67
2022-12-13T23:39:36.895Z,19.40
2022-12-13T23:42:03.896Z,18.80
2022-12-13T23:44:30.958Z,18.90
2022-12-13T23:46:57.783Z,18.17
2022-12-13T23:49:24.833Z,19.20
2022-12-13T23:51:51.613Z,17.77
2022-12-13T23:54:20.196Z,18.70
2022-12-13T23:56:47.769Z,17.83
2022-12-13T23:59:16.509Z,19.50
